| time (UTC) | temp F | wind direction | speed MPH | gust MPH | rain 1hr in | rain 24hr in | rain mn in | humidity % | barometer mb |
| 20260507213013 | 59 | 298 | 11.0 | 16.0 | 0.00 | 0.00 | 0.00 | 32 | 1293.1 |
| 20260507212508 | 59 | 241 | 11.0 | 13.0 | 0.00 | 0.00 | 0.00 | 30 | 1293.2 |
| 20260507212005 | 61 | 276 | 12.0 | 15.0 | 0.00 | 0.00 | 0.00 | 30 | 1293.4 |
| 20260507211502 | 64 | 300 | 8.0 | 13.0 | 0.00 | 0.00 | 0.00 | 35 | 1293.4 |
| 20260507210958 | 63 | 276 | 15.0 | 23.0 | 0.00 | 0.00 | 0.00 | 32 | 1293.4 |
| 20260507210455 | 63 | 294 | 15.0 | 21.0 | 0.00 | 0.00 | 0.00 | 32 | 1293.2 |
| 20260507205953 | 62 | 299 | 8.0 | 13.0 | 0.00 | 0.00 | 0.00 | 34 | 1293.1 |
| 20260507205450 | 62 | 304 | 7.0 | 11.0 | 0.00 | 0.00 | 0.00 | 33 | 1293.6 |
| 20260507204945 | 60 | 309 | 3.0 | 6.0 | 0.00 | 0.00 | 0.00 | 38 | 1293.5 |
| 20260507204442 | 61 | 289 | 9.0 | 11.0 | 0.00 | 0.00 | 0.00 | 36 | 1293.7 |
| 20260507203940 | 60 | 264 | 6.0 | 8.0 | 0.00 | 0.00 | 0.00 | 36 | 1293.7 |
| 20260507203437 | 60 | 296 | 1.0 | 6.0 | 0.00 | 0.00 | 0.00 | 34 | 1294.0 |
| 20260507202934 | 60 | 288 | 2.0 | 8.0 | 0.00 | 0.00 | 0.00 | 33 | 1294.1 |
| 20260507202430 | 60 | 293 | 2.0 | 6.0 | 0.00 | 0.00 | 0.00 | 33 | 1294.2 |
| 20260507201926 | 59 | 289 | 4.0 | 8.0 | 0.00 | 0.00 | 0.00 | 35 | 1294.2 |
| 20260507201416 | 60 | 308 | 9.0 | 11.0 | 0.00 | 0.00 | 0.00 | 39 | 1294.5 |
| 20260507200913 | 59 | 337 | 2.0 | 6.0 | 0.00 | 0.00 | 0.00 | 36 | 1294.5 |
| 20260507200409 | 59 | 293 | 1.0 | 2.0 | 0.00 | 0.00 | 0.00 | 39 | 1294.5 |
| 20260507195905 | 58 | 273 | 3.0 | 3.0 | 0.00 | 0.00 | 0.00 | 34 | 1294.5 |
| 20260507195403 | 57 | 253 | 4.0 | 6.0 | 0.00 | 0.00 | 0.00 | 35 | 1294.6 |
| 20260507194859 | 57 | 297 | 1.0 | 3.0 | 0.00 | 0.00 | 0.00 | 36 | 1294.5 |
| 20260507194355 | 57 | 299 | 4.0 | 5.0 | 0.00 | 0.00 | 0.00 | 39 | 1294.7 |
| 20260507193851 | 58 | 268 | 5.0 | 6.0 | 0.00 | 0.00 | 0.00 | 42 | 1294.7 |
| 20260507193350 | 57 | 295 | 3.0 | 7.0 | 0.00 | 0.00 | 0.00 | 42 | 1295.0 |
| 20260507192845 | 56 | 276 | 5.0 | 6.0 | 0.00 | 0.00 | 0.00 | 41 | 1294.6 |
| 20260507192341 | 56 | 303 | 6.0 | 8.0 | 0.00 | 0.00 | 0.00 | 42 | 1294.8 |
| 20260507191838 | 56 | 297 | 6.0 | 7.0 | 0.00 | 0.00 | 0.00 | 41 | 1294.7 |
| 20260507191335 | 56 | 246 | 4.0 | 7.0 | 0.00 | 0.00 | 0.00 | 42 | 1294.8 |
| 20260507190831 | 56 | 288 | 5.0 | 10.0 | 0.00 | 0.00 | 0.00 | 41 | 1294.7 |
| 20260507190330 | 56 | 258 | 4.0 | 7.0 | 0.00 | 0.00 | 0.00 | 41 | 1294.8 |
| 20260507185829 | 56 | 293 | 2.0 | 3.0 | 0.00 | 0.00 | 0.00 | 38 | 1294.8 |
| 20260507185325 | 56 | 266 | 13.0 | 15.0 | 0.00 | 0.00 | 0.00 | 42 | 1295.1 |
| 20260507184822 | 56 | 298 | 2.0 | 3.0 | 0.00 | 0.00 | 0.00 | 39 | 1295.3 |
| 20260507184320 | 55 | 285 | 3.0 | 6.0 | 0.00 | 0.00 | 0.00 | 38 | 1295.3 |
| 20260507183817 | 57 | 59 | 1.0 | 3.0 | 0.00 | 0.00 | 0.00 | 33 | 1295.2 |
| 20260507183314 | 57 | 64 | 1.0 | 2.0 | 0.00 | 0.00 | 0.00 | 37 | 1295.3 |
| 20260507182812 | 56 | 336 | 1.0 | 3.0 | 0.00 | 0.00 | 0.00 | 36 | 1295.3 |
| 20260507182307 | 56 | 276 | 2.0 | 2.0 | 0.00 | 0.00 | 0.00 | 41 | 1295.4 |
| 20260507181803 | 55 | 300 | 1.0 | 2.0 | 0.00 | 0.00 | 0.00 | 38 | 1295.4 |
| 20260507181259 | 55 | 273 | 2.0 | 3.0 | 0.00 | 0.00 | 0.00 | 39 | 1295.4 |
| 20260507180755 | 55 | 262 | 3.0 | 3.0 | 0.00 | 0.00 | 0.00 | 39 | 1295.4 |
| 20260507180253 | 55 | 281 | 1.0 | 1.0 | 0.00 | 0.00 | 0.00 | 41 | 1295.6 |
| 20260507175748 | 55 | 259 | 1.0 | 3.0 | 0.00 | 0.00 | 0.00 | 39 | 1295.4 |
| 20260507175245 | 55 | 294 | 1.0 | 3.0 | 0.00 | 0.00 | 0.00 | 38 | 1295.6 |
| 20260507174742 | 55 | 328 | 1.0 | 3.0 | 0.00 | 0.00 | 0.00 | 38 | 1295.3 |
| 20260507174241 | 55 | 290 | 1.0 | 1.0 | 0.00 | 0.00 | 0.00 | 40 | 1295.4 |
| 20260507173738 | 55 | 243 | 1.0 | 2.0 | 0.00 | 0.00 | 0.00 | 42 | 1295.4 |
| 20260507173229 | 55 | 285 | 3.0 | 5.0 | 0.00 | 0.00 | 0.00 | 40 | 1295.3 |
| 20260507172725 | 55 | 268 | 1.0 | 2.0 | 0.00 | 0.00 | 0.00 | 36 | 1295.7 |
| 20260507172222 | 55 | 281 | 2.0 | 6.0 | 0.00 | 0.00 | 0.00 | 38 | 1295.7 |
| 20260507171722 | 54 | 257 | 5.0 | 8.0 | 0.00 | 0.00 | 0.00 | 37 | 1295.6 |
| 20260507171220 | 55 | 283 | 0.0 | 1.0 | 0.00 | 0.00 | 0.00 | 36 | 1295.8 |
| 20260507170716 | 54 | 280 | 2.0 | 7.0 | 0.00 | 0.00 | 0.00 | 40 | 1296.0 |
| 20260507170214 | 54 | 301 | 0.0 | 5.0 | 0.00 | 0.00 | 0.00 | 38 | 1296.0 |
| 20260507165709 | 54 | 256 | 3.0 | 3.0 | 0.00 | 0.00 | 0.00 | 40 | 1295.9 |
| 20260507165205 | 53 | 261 | 3.0 | 7.0 | 0.00 | 0.00 | 0.00 | 40 | 1296.0 |
| 20260507164701 | 54 | 270 | 3.0 | 5.0 | 0.00 | 0.00 | 0.00 | 38 | 1295.9 |
| 20260507164159 | 54 | 247 | 3.0 | 5.0 | 0.00 | 0.00 | 0.00 | 39 | 1296.0 |
| 20260507163656 | 53 | 263 | 3.0 | 3.0 | 0.00 | 0.00 | 0.00 | 43 | 1296.0 |
| 20260507163154 | 53 | 291 | 1.0 | 3.0 | 0.00 | 0.00 | 0.00 | 42 | 1295.9 |
| 20260507162649 | 53 | 314 | 3.0 | 3.0 | 0.00 | 0.00 | 0.00 | 43 | 1296.2 |
| 20260507162146 | 54 | 287 | 3.0 | 5.0 | 0.00 | 0.00 | 0.00 | 41 | 1296.0 |
| 20260507161642 | 53 | 248 | 4.0 | 6.0 | 0.00 | 0.00 | 0.00 | 40 | 1296.3 |
| 20260507161139 | 52 | 296 | 2.0 | 3.0 | 0.00 | 0.00 | 0.00 | 43 | 1296.4 |
| 20260507160635 | 52 | 293 | 3.0 | 5.0 | 0.00 | 0.00 | 0.00 | 44 | 1296.4 |
| 20260507160132 | 51 | 278 | 1.0 | 3.0 | 0.00 | 0.00 | 0.00 | 45 | 1296.5 |
| 20260507155627 | 53 | 295 | 2.0 | 5.0 | 0.00 | 0.00 | 0.00 | 41 | 1296.3 |
| 20260507155124 | 52 | 298 | 3.0 | 8.0 | 0.00 | 0.00 | 0.00 | 40 | 1296.3 |
| 20260507154621 | 51 | 153 | 3.0 | 5.0 | 0.00 | 0.00 | 0.00 | 43 | 1296.3 |
| 20260507154118 | 51 | 281 | 2.0 | 6.0 | 0.00 | 0.00 | 0.00 | 42 | 1296.4 |
| 20260507153614 | 51 | 288 | 2.0 | 6.0 | 0.00 | 0.00 | 0.00 | 41 | 1296.4 |
| 20260507153111 | 51 | 262 | 4.0 | 8.0 | 0.00 | 0.00 | 0.00 | 39 | 1296.4 |
| 20260507152607 | 51 | 315 | 1.0 | 3.0 | 0.00 | 0.00 | 0.00 | 40 | 1296.3 |
| 20260507152103 | 51 | 307 | 2.0 | 3.0 | 0.00 | 0.00 | 0.00 | 40 | 1296.3 |
| 20260507151600 | 51 | 164 | 1.0 | 3.0 | 0.00 | 0.00 | 0.00 | 42 | 1296.4 |
| 20260507151057 | 49 | 256 | 3.0 | 7.0 | 0.00 | 0.00 | 0.00 | 42 | 1296.3 |
| 20260507150554 | 50 | 302 | 1.0 | 5.0 | 0.00 | 0.00 | 0.00 | 42 | 1296.4 |
| 20260507150051 | 48 | 255 | 2.0 | 9.0 | 0.00 | 0.00 | 0.00 | 47 | 1296.5 |
| 20260507145545 | 49 | 278 | 1.0 | 2.0 | 0.00 | 0.00 | 0.00 | 49 | 1296.7 |
| 20260507145044 | 46 | 22 | 1.0 | 2.0 | 0.00 | 0.00 | 0.00 | 54 | 1296.5 |
| 20260507144540 | 48 | 290 | 2.0 | 2.0 | 0.00 | 0.00 | 0.00 | 49 | 1296.5 |
| 20260507144038 | 46 | 274 | 1.0 | 2.0 | 0.00 | 0.00 | 0.00 | 52 | 1296.5 |
| 20260507143535 | 48 | 303 | 0.0 | 0.0 | 0.00 | 0.00 | 0.00 | 50 | 1296.2 |
| 20260507143032 | 48 | 177 | 1.0 | 2.0 | 0.00 | 0.00 | 0.00 | 55 | 1296.4 |
| 20260507142527 | 46 | 305 | 1.0 | 1.0 | 0.00 | 0.00 | 0.00 | 50 | 1296.5 |
| 20260507142024 | 45 | 153 | 1.0 | 3.0 | 0.00 | 0.00 | 0.00 | 56 | 1296.4 |
| 20260507141520 | 45 | 103 | 2.0 | 2.0 | 0.00 | 0.00 | 0.00 | 53 | 1296.7 |
| 20260507141017 | 44 | 304 | 5.0 | 9.0 | 0.00 | 0.00 | 0.00 | 50 | 1296.2 |
| 20260507140514 | 44 | 93 | 3.0 | 5.0 | 0.00 | 0.00 | 0.00 | 54 | 1296.2 |
| 20260507140012 | 42 | 48 | 2.0 | 5.0 | 0.00 | 0.00 | 0.00 | 62 | 1296.2 |
| 20260507135508 | 44 | 275 | 1.0 | 1.0 | 0.00 | 0.00 | 0.00 | 63 | 1296.3 |
| 20260507135006 | 42 | 281 | 1.0 | 1.0 | 0.00 | 0.00 | 0.00 | 57 | 1296.3 |
| 20260507134502 | 42 | 302 | 0.0 | 2.0 | 0.00 | 0.00 | 0.00 | 62 | 1296.2 |
| 20260507133958 | 40 | 263 | 2.0 | 2.0 | 0.00 | 0.00 | 0.00 | 61 | 1296.2 |
| 20260507133454 | 41 | 304 | 0.0 | 2.0 | 0.00 | 0.00 | 0.00 | 70 | 1296.2 |
| 20260507132952 | 41 | 120 | 2.0 | 2.0 | 0.00 | 0.00 | 0.00 | 65 | 1296.0 |
| 20260507132448 | 40 | 242 | 1.0 | 3.0 | 0.00 | 0.00 | 0.00 | 69 | 1295.9 |
| 20260507131945 | 39 | 281 | 0.0 | 0.0 | 0.00 | 0.00 | 0.00 | 67 | 1295.9 |
| 20260507131442 | 40 | 20 | 1.0 | 3.0 | 0.00 | 0.00 | 0.00 | 53 | 1295.9 |
| 20260507130939 | 40 | 333 | 0.0 | 1.0 | 0.00 | 0.00 | 0.00 | 59 | 1295.7 |
| 20260507130436 | 38 | 56 | 4.0 | 7.0 | 0.00 | 0.00 | 0.00 | 59 | 1295.7 |
| 20260507125935 | 39 | 296 | 3.0 | 8.0 | 0.00 | 0.00 | 0.00 | 47 | 1295.8 |
| 20260507125433 | 38 | 261 | 3.0 | 5.0 | 0.00 | 0.00 | 0.00 | 54 | 1295.8 |
| 20260507124929 | 37 | 134 | 1.0 | 2.0 | 0.00 | 0.00 | 0.00 | 62 | 1295.8 |
| 20260507124425 | 37 | 62 | 1.0 | 3.0 | 0.00 | 0.00 | 0.00 | 59 | 1295.4 |
| 20260507123924 | 38 | 54 | 3.0 | 5.0 | 0.00 | 0.00 | 0.00 | 55 | 1295.4 |
| 20260507123421 | 40 | 295 | 3.0 | 5.0 | 0.00 | 0.00 | 0.00 | 50 | 1295.3 |
| 20260507122918 | 40 | 183 | 3.0 | 7.0 | 0.00 | 0.00 | 0.00 | 49 | 1295.3 |
| 20260507122412 | 39 | 147 | 3.0 | 6.0 | 0.00 | 0.00 | 0.00 | 52 | 1295.2 |
| 20260507121909 | 39 | 164 | 1.0 | 5.0 | 0.00 | 0.00 | 0.00 | 52 | 1295.3 |
| 20260507121404 | 33 | 268 | 5.0 | 9.0 | 0.00 | 0.00 | 0.00 | 64 | 1295.4 |
| 20260507120901 | 28 | 191 | 1.0 | 2.0 | 0.00 | 0.00 | 0.00 | 88 | 1295.4 |
| 20260507120357 | 28 | 161 | 1.0 | 3.0 | 0.00 | 0.00 | 0.00 | 87 | 1295.2 |
| 20260507115854 | 27 | 247 | 0.0 | 2.0 | 0.00 | 0.00 | 0.00 | 89 | 1295.4 |
| 20260507115350 | 28 | 122 | 2.0 | 3.0 | 0.00 | 0.00 | 0.00 | 85 | 1295.3 |
| 20260507114846 | 28 | 226 | 0.0 | 2.0 | 0.00 | 0.00 | 0.00 | 85 | 1295.4 |
| 20260507114343 | 28 | 251 | 0.0 | 0.0 | 0.00 | 0.00 | 0.00 | 86 | 1295.6 |
| 20260507113840 | 28 | 126 | 2.0 | 2.0 | 0.00 | 0.00 | 0.00 | 86 | 1295.3 |
| 20260507113337 | 29 | 127 | 3.0 | 5.0 | 0.00 | 0.00 | 0.00 | 84 | 1295.2 |
| 20260507112835 | 29 | 117 | 2.0 | 3.0 | 0.00 | 0.00 | 0.00 | 84 | 1295.1 |
| 20260507112332 | 30 | 315 | 0.0 | 2.0 | 0.00 | 0.00 | 0.00 | 82 | 1295.4 |
| 20260507111829 | 29 | 123 | 1.0 | 2.0 | 0.00 | 0.00 | 0.00 | 84 | 1295.4 |
| 20260507111326 | 27 | 309 | 0.0 | 1.0 | 0.00 | 0.00 | 0.00 | 90 | 1295.2 |
| 20260507110822 | 27 | 229 | 0.0 | 1.0 | 0.00 | 0.00 | 0.00 | 89 | 1295.4 |
| 20260507110319 | 26 | 207 | 1.0 | 3.0 | 0.00 | 0.00 | 0.00 | 91 | 1295.4 |
| 20260507105815 | 26 | 229 | 1.0 | 1.0 | 0.00 | 0.00 | 0.00 | 93 | 1295.6 |
| 20260507105312 | 26 | 120 | 3.0 | 3.0 | 0.00 | 0.00 | 0.00 | 92 | 1295.7 |
| 20260507104809 | 26 | 128 | 2.0 | 3.0 | 0.00 | 0.00 | 0.00 | 88 | 1295.3 |
| 20260507104305 | 26 | 199 | 2.0 | 2.0 | 0.00 | 0.00 | 0.00 | 91 | 1295.6 |
| 20260507103802 | 27 | 221 | 1.0 | 1.0 | 0.00 | 0.00 | 0.00 | 89 | 1295.3 |
| 20260507103258 | 27 | 250 | 0.0 | 1.0 | 0.00 | 0.00 | 0.00 | 88 | 1295.3 |
| 20260507102754 | 27 | 263 | 0.0 | 3.0 | 0.00 | 0.00 | 0.00 | 89 | 1295.4 |
| 20260507102251 | 26 | 249 | 0.0 | 1.0 | 0.00 | 0.00 | 0.00 | 90 | 1295.7 |
| 20260507101747 | 27 | 166 | 2.0 | 2.0 | 0.00 | 0.00 | 0.00 | 89 | 1295.3 |
| 20260507101242 | 28 | 138 | 3.0 | 3.0 | 0.00 | 0.00 | 0.00 | 86 | 1295.4 |
| 20260507100740 | 28 | 279 | 0.0 | 2.0 | 0.00 | 0.00 | 0.00 | 86 | 1295.4 |
| 20260507100238 | 27 | 221 | 0.0 | 3.0 | 0.00 | 0.00 | 0.00 | 89 | 1295.3 |
| 20260507095736 | 27 | 241 | 2.0 | 3.0 | 0.00 | 0.00 | 0.00 | 85 | 1295.7 |
| 20260507095227 | 28 | 279 | 0.0 | 1.0 | 0.00 | 0.00 | 0.00 | 81 | 1295.8 |
| 20260507094724 | 28 | 195 | 2.0 | 2.0 | 0.00 | 0.00 | 0.00 | 82 | 1295.7 |
| 20260507094221 | 28 | 277 | 1.0 | 1.0 | 0.00 | 0.00 | 0.00 | 86 | 1295.7 |
| 20260507093717 | 27 | 243 | 0.0 | 2.0 | 0.00 | 0.00 | 0.00 | 88 | 1295.6 |
| 20260507093215 | 27 | 269 | 0.0 | 1.0 | 0.00 | 0.00 | 0.00 | 87 | 1295.7 |
| 20260507092713 | 28 | 209 | 1.0 | 5.0 | 0.00 | 0.00 | 0.00 | 86 | 1295.7 |
| 20260507092209 | 29 | 213 | 1.0 | 2.0 | 0.00 | 0.00 | 0.00 | 82 | 1295.7 |
| 20260507091706 | 28 | 259 | 0.0 | 1.0 | 0.00 | 0.00 | 0.00 | 85 | 1295.7 |
| 20260507091202 | 29 | 258 | 0.0 | 3.0 | 0.00 | 0.00 | 0.00 | 82 | 1295.7 |
| 20260507090657 | 28 | 25 | 1.0 | 2.0 | 0.00 | 0.00 | 0.00 | 84 | 1295.8 |
| 20260507090154 | 28 | 134 | 3.0 | 5.0 | 0.00 | 0.00 | 0.00 | 86 | 1295.7 |
| 20260507085651 | 28 | 121 | 2.0 | 2.0 | 0.00 | 0.00 | 0.00 | 87 | 1296.0 |
| 20260507085148 | 29 | 301 | 0.0 | 2.0 | 0.00 | 0.00 | 0.00 | 79 | 1295.9 |
| 20260507084645 | 28 | 248 | 0.0 | 2.0 | 0.00 | 0.00 | 0.00 | 84 | 1296.0 |
| 20260507084136 | 28 | 283 | 1.0 | 3.0 | 0.00 | 0.00 | 0.00 | 82 | 1295.9 |
| 20260507083633 | 26 | 223 | 0.0 | 2.0 | 0.00 | 0.00 | 0.00 | 89 | 1296.2 |
| 20260507083129 | 27 | 237 | 1.0 | 1.0 | 0.00 | 0.00 | 0.00 | 87 | 1295.8 |
| 20260507082626 | 27 | 210 | 1.0 | 2.0 | 0.00 | 0.00 | 0.00 | 87 | 1295.9 |
| 20260507082122 | 26 | 262 | 3.0 | 3.0 | 0.00 | 0.00 | 0.00 | 94 | 1296.0 |
| 20260507081619 | 25 | 279 | 0.0 | 1.0 | 0.00 | 0.00 | 0.00 | 95 | 1296.0 |
| 20260507081115 | 24 | 250 | 1.0 | 2.0 | 0.00 | 0.00 | 0.00 | 96 | 1295.8 |
| 20260507080611 | 24 | 207 | 1.0 | 1.0 | 0.00 | 0.00 | 0.00 | 96 | 1296.0 |
| 20260507080108 | 24 | 234 | 1.0 | 2.0 | 0.00 | 0.00 | 0.00 | 96 | 1296.2 |
| 20260507075603 | 24 | 161 | 2.0 | 2.0 | 0.00 | 0.00 | 0.00 | 96 | 1296.2 |
| 20260507075059 | 24 | 269 | 0.0 | 2.0 | 0.00 | 0.00 | 0.00 | 96 | 1296.3 |
| 20260507074556 | 24 | 220 | 0.0 | 2.0 | 0.00 | 0.00 | 0.00 | 96 | 1296.3 |
| 20260507074055 | 24 | 217 | 0.0 | 2.0 | 0.00 | 0.00 | 0.00 | 96 | 1296.0 |
| 20260507073550 | 25 | 199 | 3.0 | 3.0 | 0.00 | 0.00 | 0.00 | 96 | 1296.4 |
| 20260507073047 | 24 | 252 | 0.0 | 1.0 | 0.00 | 0.00 | 0.00 | 96 | 1296.3 |
| 20260507072544 | 23 | 259 | 0.0 | 2.0 | 0.00 | 0.00 | 0.00 | 96 | 1296.5 |
| 20260507072041 | 24 | 200 | 1.0 | 2.0 | 0.00 | 0.00 | 0.00 | 96 | 1296.5 |
| 20260507071539 | 24 | 216 | 2.0 | 2.0 | 0.00 | 0.00 | 0.00 | 96 | 1296.4 |
| 20260507071035 | 24 | 251 | 0.0 | 1.0 | 0.00 | 0.00 | 0.00 | 96 | 1296.7 |
| 20260507070533 | 24 | 215 | 1.0 | 3.0 | 0.00 | 0.00 | 0.00 | 96 | 1296.5 |
| 20260507070030 | 24 | 149 | 2.0 | 2.0 | 0.00 | 0.00 | 0.00 | 96 | 1296.3 |
| 20260507065526 | 25 | 188 | 1.0 | 2.0 | 0.00 | 0.00 | 0.00 | 95 | 1296.5 |
| 20260507065023 | 25 | 216 | 1.0 | 1.0 | 0.00 | 0.00 | 0.00 | 96 | 1296.5 |
| 20260507064521 | 24 | 217 | 1.0 | 2.0 | 0.00 | 0.00 | 0.00 | 95 | 1296.7 |
| 20260507064019 | 24 | 229 | 1.0 | 2.0 | 0.00 | 0.00 | 0.00 | 95 | 1296.5 |
| 20260507063516 | 26 | 244 | 0.0 | 1.0 | 0.00 | 0.00 | 0.00 | 95 | 1296.5 |
| 20260507063014 | 25 | 194 | 1.0 | 2.0 | 0.00 | 0.00 | 0.00 | 95 | 1296.5 |
| 20260507062510 | 25 | 233 | 1.0 | 2.0 | 0.00 | 0.00 | 0.00 | 95 | 1296.7 |
| 20260507062008 | 25 | 220 | 0.0 | 1.0 | 0.00 | 0.00 | 0.00 | 94 | 1296.5 |
| 20260507061505 | 25 | 277 | 0.0 | 1.0 | 0.00 | 0.00 | 0.00 | 93 | 1296.5 |
| 20260507061003 | 25 | 122 | 2.0 | 3.0 | 0.00 | 0.00 | 0.00 | 92 | 1296.7 |
| 20260507060500 | 26 | 196 | 1.0 | 2.0 | 0.00 | 0.00 | 0.00 | 92 | 1296.7 |
| 20260507055956 | 27 | 188 | 2.0 | 2.0 | 0.00 | 0.01 | 0.01 | 92 | 1296.4 |
| 20260507055452 | 26 | 202 | 0.0 | 1.0 | 0.00 | 0.01 | 0.01 | 91 | 1296.3 |
| 20260507054949 | 27 | 234 | 1.0 | 2.0 | 0.00 | 0.01 | 0.01 | 90 | 1296.2 |
| 20260507054444 | 27 | 210 | 1.0 | 1.0 | 0.00 | 0.01 | 0.01 | 91 | 1296.4 |
| 20260507053942 | 28 | 239 | 1.0 | 5.0 | 0.00 | 0.01 | 0.01 | 92 | 1296.2 |
| 20260507053440 | 27 | 216 | 0.0 | 2.0 | 0.00 | 0.01 | 0.01 | 93 | 1296.0 |
| 20260507052938 | 27 | 198 | 1.0 | 3.0 | 0.00 | 0.01 | 0.01 | 93 | 1296.3 |
| 20260507052435 | 27 | 254 | 0.0 | 1.0 | 0.00 | 0.01 | 0.01 | 93 | 1296.3 |
| 20260507051932 | 27 | 264 | 0.0 | 2.0 | 0.00 | 0.01 | 0.01 | 93 | 1296.4 |
| 20260507051430 | 27 | 243 | 1.0 | 2.0 | 0.00 | 0.01 | 0.01 | 93 | 1296.2 |
| 20260507050926 | 27 | 225 | 2.0 | 2.0 | 0.00 | 0.01 | 0.01 | 94 | 1296.2 |
| 20260507050423 | 27 | 254 | 0.0 | 2.0 | 0.00 | 0.01 | 0.01 | 94 | 1296.3 |
| 20260507045920 | 27 | 168 | 2.0 | 2.0 | 0.00 | 0.01 | 0.01 | 92 | 1296.3 |
| 20260507045416 | 28 | 249 | 0.0 | 2.0 | 0.00 | 0.01 | 0.01 | 91 | 1296.2 |
| 20260507044908 | 29 | 177 | 1.0 | 3.0 | 0.00 | 0.01 | 0.01 | 90 | 1296.2 |
| 20260507044405 | 29 | 292 | 1.0 | 5.0 | 0.00 | 0.01 | 0.01 | 90 | 1296.0 |
| 20260507043901 | 29 | 228 | 2.0 | 6.0 | 0.00 | 0.01 | 0.01 | 91 | 1296.0 |
| 20260507043357 | 29 | 191 | 1.0 | 6.0 | 0.00 | 0.01 | 0.01 | 90 | 1296.2 |
| 20260507042853 | 30 | 212 | 1.0 | 3.0 | 0.00 | 0.01 | 0.01 | 90 | 1296.0 |
| 20260507042350 | 29 | 299 | 2.0 | 2.0 | 0.00 | 0.01 | 0.01 | 91 | 1296.0 |
| 20260507041846 | 29 | 228 | 2.0 | 5.0 | 0.00 | 0.01 | 0.01 | 92 | 1296.0 |
| 20260507041343 | 29 | 175 | 4.0 | 6.0 | 0.00 | 0.01 | 0.01 | 92 | 1296.0 |
| 20260507040840 | 29 | 211 | 2.0 | 6.0 | 0.00 | 0.01 | 0.01 | 93 | 1296.0 |
| 20260507040336 | 28 | 251 | 2.0 | 7.0 | 0.00 | 0.01 | 0.01 | 93 | 1295.7 |
| 20260507035832 | 29 | 127 | 4.0 | 5.0 | 0.00 | 0.01 | 0.01 | 93 | 1296.0 |
| 20260507035328 | 29 | 211 | 1.0 | 5.0 | 0.00 | 0.01 | 0.01 | 92 | 1295.8 |
| 20260507034826 | 29 | 284 | 2.0 | 5.0 | 0.00 | 0.01 | 0.01 | 92 | 1295.7 |
| 20260507034322 | 29 | 207 | 3.0 | 5.0 | 0.00 | 0.01 | 0.01 | 93 | 1295.8 |
| 20260507033820 | 30 | 238 | 2.0 | 6.0 | 0.00 | 0.01 | 0.01 | 92 | 1295.9 |
| 20260507033318 | 29 | 221 | 4.0 | 7.0 | 0.00 | 0.01 | 0.01 | 94 | 1295.9 |
| 20260507032815 | 29 | 208 | 3.0 | 5.0 | 0.00 | 0.01 | 0.01 | 94 | 1295.7 |
| 20260507032311 | 29 | 178 | 2.0 | 5.0 | 0.00 | 0.01 | 0.01 | 94 | 1296.0 |
| 20260507031808 | 29 | 202 | 3.0 | 5.0 | 0.00 | 0.01 | 0.01 | 94 | 1295.8 |
| 20260507031304 | 29 | 231 | 2.0 | 5.0 | 0.00 | 0.01 | 0.01 | 93 | 1295.4 |
| 20260507030801 | 30 | 193 | 1.0 | 3.0 | 0.00 | 0.01 | 0.01 | 93 | 1295.8 |
| 20260507030258 | 30 | 18 | 1.0 | 3.0 | 0.00 | 0.01 | 0.01 | 93 | 1295.6 |
| 20260507025756 | 30 | 273 | 3.0 | 3.0 | 0.00 | 0.01 | 0.01 | 92 | 1295.6 |
| 20260507025253 | 30 | 137 | 5.0 | 7.0 | 0.00 | 0.01 | 0.01 | 92 | 1295.4 |
| 20260507024751 | 30 | 184 | 2.0 | 2.0 | 0.00 | 0.01 | 0.01 | 93 | 1295.4 |
| 20260507024247 | 30 | 250 | 1.0 | 2.0 | 0.00 | 0.01 | 0.01 | 93 | 1295.2 |
| 20260507023743 | 30 | 228 | 1.0 | 3.0 | 0.00 | 0.01 | 0.01 | 92 | 1295.4 |
| 20260507023240 | 31 | 264 | 2.0 | 6.0 | 0.00 | 0.01 | 0.01 | 91 | 1295.4 |
| 20260507022737 | 31 | 183 | 5.0 | 8.0 | 0.00 | 0.01 | 0.01 | 90 | 1295.2 |
| 20260507022233 | 31 | 273 | 2.0 | 3.0 | 0.00 | 0.01 | 0.01 | 90 | 1295.3 |
| 20260507021730 | 32 | 120 | 7.0 | 11.0 | 0.00 | 0.01 | 0.01 | 89 | 1295.4 |
| 20260507021225 | 32 | 197 | 5.0 | 7.0 | 0.00 | 0.01 | 0.01 | 89 | 1295.2 |
| 20260507020724 | 33 | 137 | 7.0 | 9.0 | 0.00 | 0.01 | 0.01 | 88 | 1295.2 |
| 20260507020220 | 33 | 110 | 5.0 | 9.0 | 0.00 | 0.01 | 0.01 | 89 | 1295.3 |
| 20260507015718 | 32 | 169 | 5.0 | 9.0 | 0.00 | 0.01 | 0.01 | 89 | 1295.2 |
| 20260507015215 | 33 | 103 | 3.0 | 7.0 | 0.00 | 0.01 | 0.01 | 89 | 1295.1 |
| 20260507014711 | 32 | 145 | 5.0 | 9.0 | 0.00 | 0.01 | 0.01 | 89 | 1295.3 |
| 20260507014208 | 32 | 242 | 3.0 | 8.0 | 0.00 | 0.01 | 0.01 | 90 | 1295.3 |
| 20260507013704 | 32 | 247 | 1.0 | 5.0 | 0.00 | 0.01 | 0.01 | 90 | 1295.3 |
| 20260507013202 | 33 | 286 | 0.0 | 0.0 | 0.00 | 0.01 | 0.01 | 87 | 1295.2 |
| 20260507012659 | 34 | 274 | 0.0 | 0.0 | 0.00 | 0.01 | 0.01 | 86 | 1295.6 |
| 20260507012154 | 35 | 298 | 0.0 | 0.0 | 0.00 | 0.01 | 0.01 | 86 | 1295.4 |
| 20260507011652 | 35 | 292 | 0.0 | 2.0 | 0.00 | 0.01 | 0.01 | 85 | 1295.4 |
| 20260507011148 | 36 | 193 | 1.0 | 3.0 | 0.00 | 0.01 | 0.01 | 84 | 1295.4 |
| 20260507010643 | 36 | 240 | 2.0 | 5.0 | 0.00 | 0.01 | 0.01 | 84 | 1295.3 |
| 20260507010139 | 36 | 249 | 2.0 | 6.0 | 0.00 | 0.01 | 0.01 | 84 | 1295.1 |
| 20260507005637 | 36 | 279 | 1.0 | 6.0 | 0.00 | 0.01 | 0.01 | 84 | 1295.2 |
| 20260507005133 | 34 | 185 | 4.0 | 5.0 | 0.00 | 0.01 | 0.01 | 85 | 1295.3 |
| 20260507004630 | 34 | 195 | 5.0 | 8.0 | 0.00 | 0.01 | 0.01 | 85 | 1295.2 |
| 20260507004128 | 34 | 124 | 5.0 | 7.0 | 0.00 | 0.01 | 0.01 | 85 | 1295.1 |
| 20260507003624 | 35 | 122 | 4.0 | 5.0 | 0.00 | 0.01 | 0.01 | 83 | 1295.2 |
| 20260507003119 | 35 | 181 | 2.0 | 9.0 | 0.00 | 0.01 | 0.01 | 83 | 1295.2 |
| 20260507002616 | 35 | 231 | 2.0 | 7.0 | 0.00 | 0.01 | 0.01 | 84 | 1295.2 |
| 20260507002111 | 35 | 177 | 4.0 | 5.0 | 0.00 | 0.01 | 0.01 | 85 | 1295.2 |
| 20260507001608 | 35 | 228 | 2.0 | 5.0 | 0.00 | 0.01 | 0.01 | 85 | 1295.3 |
| 20260507001106 | 35 | 253 | 3.0 | 7.0 | 0.00 | 0.01 | 0.01 | 85 | 1295.3 |
| 20260507000602 | 33 | 170 | 1.0 | 3.0 | 0.00 | 0.01 | 0.01 | 87 | 1295.4 |
| 20260507000057 | 33 | 220 | 3.0 | 5.0 | 0.00 | 0.01 | 0.01 | 87 | 1295.4 |
| 20260506235555 | 33 | 147 | 1.0 | 7.0 | 0.00 | 0.01 | 0.01 | 87 | 1295.4 |
| 20260506235050 | 33 | 160 | 3.0 | 5.0 | 0.00 | 0.01 | 0.01 | 87 | 1295.7 |
| 20260506234548 | 32 | 94 | 1.0 | 5.0 | 0.00 | 0.01 | 0.01 | 87 | 1295.6 |
| 20260506234045 | 33 | 123 | 2.0 | 5.0 | 0.00 | 0.01 | 0.01 | 86 | 1295.7 |
| 20260506233542 | 33 | 148 | 5.0 | 11.0 | 0.00 | 0.01 | 0.01 | 84 | 1295.3 |
| 20260506233039 | 33 | 123 | 4.0 | 10.0 | 0.00 | 0.01 | 0.01 | 84 | 1295.6 |
| 20260506232535 | 34 | 294 | 4.0 | 10.0 | 0.00 | 0.01 | 0.01 | 82 | 1295.4 |
| 20260506232030 | 33 | 172 | 11.0 | 13.0 | 0.00 | 0.01 | 0.01 | 83 | 1295.4 |
| 20260506231528 | 33 | 123 | 5.0 | 7.0 | 0.00 | 0.01 | 0.01 | 86 | 1295.3 |
| 20260506231026 | 34 | 127 | 4.0 | 7.0 | 0.00 | 0.01 | 0.01 | 85 | 1295.3 |
| 20260506230522 | 33 | 142 | 3.0 | 5.0 | 0.00 | 0.01 | 0.01 | 86 | 1295.4 |
| 20260506230020 | 32 | 153 | 4.0 | 7.0 | 0.00 | 0.01 | 0.01 | 86 | 1295.2 |
| 20260506225516 | 32 | 124 | 2.0 | 7.0 | 0.00 | 0.01 | 0.01 | 88 | 1295.3 |
| 20260506225012 | 32 | 109 | 3.0 | 6.0 | 0.00 | 0.01 | 0.01 | 88 | 1295.6 |
| 20260506224509 | 31 | 131 | 7.0 | 8.0 | 0.00 | 0.01 | 0.01 | 89 | 1295.6 |
| 20260506224006 | 30 | 161 | 3.0 | 6.0 | 0.00 | 0.01 | 0.01 | 90 | 1295.6 |
| 20260506223502 | 30 | 131 | 5.0 | 6.0 | 0.00 | 0.01 | 0.01 | 94 | 1295.6 |
| 20260506222959 | 30 | 110 | 2.0 | 3.0 | 0.00 | 0.01 | 0.01 | 99 | 1295.8 |
| 20260506222456 | 32 | 188 | 1.0 | 2.0 | 0.00 | 0.01 | 0.01 | 99 | 1295.8 |
| 20260506221952 | 32 | 259 | 1.0 | 2.0 | 0.07 | 0.01 | 0.01 | 99 | 1295.8 |
| 20260506221449 | 33 | 217 | 0.0 | 1.0 | 0.07 | 0.01 | 0.01 | 99 | 1295.8 |
| 20260506220947 | 32 | 289 | 0.0 | 0.0 | 0.00 | 0.00 | 0.00 | 98 | 1296.2 |
| 20260506220442 | 32 | 295 | 2.0 | 2.0 | 0.00 | 0.00 | 0.00 | 98 | 1295.9 |
| 20260506215939 | 31 | 265 | 2.0 | 3.0 | 0.00 | 0.00 | 0.00 | 97 | 1296.0 |
| 20260506215436 | 30 | 264 | 2.0 | 3.0 | 0.00 | 0.00 | 0.00 | 98 | 1296.2 |
| 20260506214931 | 30 | 279 | 3.0 | 5.0 | 0.00 | 0.00 | 0.00 | 98 | 1296.0 |
| 20260506214429 | 30 | 277 | 1.0 | 2.0 | 0.00 | 0.00 | 0.00 | 99 | 1296.4 |
| 20260506213926 | 29 | 267 | 3.0 | 3.0 | 0.00 | 0.00 | 0.00 | 99 | 1296.3 |
| 20260506213424 | 29 | 253 | 4.0 | 5.0 | 0.00 | 0.00 | 0.00 | 99 | 1296.3 |